La rose des vents
Donnes mto: Semaine 29/09/08 - 05/10/08 (S 40)
Date Horaire Temp. E. Hum. E. P.atmo. Pluie Vent 1mn Direction Ensoleilleme Ev.Tr. Solaire P. de rose Temp au vent Rafales
29/09/2008 00:00 14,6 C 74 % 1020,4 hPa 0,0 l/m 5,4 km/h (1 Bft) O-NO 0,00 h 0,051 mm 0 W/m 10,1 C 14,6 C 7,5 km/h (2 Bft)
29/09/2008 01:00 13,7 C 78 % 1020,2 hPa 0,0 l/m 6,2 km/h (2 Bft) O-NO 0,00 h 0,051 mm 0 W/m 9,9 C 13,7 C 8,8 km/h (2 Bft)
29/09/2008 02:00 13,7 C 79 % 1019,9 hPa 0,0 l/m 7,8 km/h (2 Bft) O-NO 0,00 h 0,025 mm 0 W/m 10,2 C 13,7 C 11,2 km/h (2 Bft)
29/09/2008 03:00 14,1 C 78 % 1019,4 hPa 0,0 l/m 4,1 km/h (1 Bft) O-NO 0,00 h 0,025 mm 0 W/m 10,2 C 14,1 C 5,9 km/h (2 Bft)
29/09/2008 04:00 13,6 C 78 % 1019,0 hPa 0,0 l/m 2,7 km/h (1 Bft) O-NO 0,00 h 0,025 mm 0 W/m 9,9 C 13,6 C 4,1 km/h (1 Bft)
29/09/2008 05:00 13,7 C 79 % 1018,8 hPa 0,0 l/m 3,1 km/h (1 Bft) O-NO 0,00 h 0,025 mm 0 W/m 10,1 C 13,7 C 4,9 km/h (1 Bft)
29/09/2008 06:00 13,6 C 78 % 1018,5 hPa 0,0 l/m 3,3 km/h (1 Bft) O-NO 0,00 h 0,025 mm 0 W/m 9,8 C 13,6 C 5,4 km/h (1 Bft)
29/09/2008 07:00 12,9 C 78 % 1018,6 hPa 0,0 l/m 1,6 km/h (1 Bft) N-NO 0,05 h 0,025 mm 18 W/m 9,1 C 12,9 C 2,6 km/h (1 Bft)
29/09/2008 08:00 13,8 C 78 % 1018,6 hPa 0,0 l/m 0,3 km/h (0 Bft) N-NO 0,45 h 0,025 mm 117 W/m 10,1 C 13,8 C 0,6 km/h (0 Bft)
29/09/2008 09:00 16,3 C 67 % 1018,7 hPa 0,0 l/m 0,0 km/h (0 Bft) N-NO 0,45 h 0,076 mm 234 W/m 10,1 C 16,3 C 0,2 km/h (0 Bft)
29/09/2008 10:00 17,9 C 65 % 1018,8 hPa 0,0 l/m 2,1 km/h (1 Bft) E 0,75 h 0,127 mm 364 W/m 11,1 C 17,9 C 4,0 km/h (1 Bft)
29/09/2008 11:00 18,6 C 63 % 1018,5 hPa 0,0 l/m 3,7 km/h (1 Bft) S-SE 0,25 h 0,229 mm 278 W/m 11,4 C 18,6 C 6,5 km/h (2 Bft)
29/09/2008 12:00 18,9 C 64 % 1018,0 hPa 0,0 l/m 5,8 km/h (2 Bft) E 0,28 h 0,203 mm 364 W/m 11,8 C 18,9 C 9,4 km/h (2 Bft)
29/09/2008 13:00 19,1 C 65 % 1017,5 hPa 0,0 l/m 7,0 km/h (2 Bft) S-SE 0,23 h 0,254 mm 324 W/m 12,4 C 19,1 C 11,3 km/h (2 Bft)
29/09/2008 14:00 19,0 C 68 % 1016,8 hPa 0,0 l/m 8,3 km/h (2 Bft) SE 0,07 h 0,203 mm 298 W/m 12,8 C 19,0 C 14,0 km/h (3 Bft)
29/09/2008 15:00 19,4 C 67 % 1016,3 hPa 0,0 l/m 10,6 km/h (2 Bft) S-SE 0,65 h 0,229 mm 427 W/m 13,1 C 19,4 C 16,5 km/h (3 Bft)
29/09/2008 16:00 18,9 C 70 % 1015,9 hPa 0,0 l/m 9,9 km/h (2 Bft) S-SE 0,35 h 0,279 mm 244 W/m 13,3 C 18,9 C 14,9 km/h (3 Bft)
29/09/2008 17:00 18,6 C 73 % 1015,5 hPa 0,0 l/m 10,1 km/h (2 Bft) S 0,03 h 0,203 mm 113 W/m 13,7 C 18,6 C 14,3 km/h (3 Bft)
29/09/2008 18:00 18,1 C 78 % 1015,2 hPa 0,0 l/m 8,6 km/h (2 Bft) S 0,22 h 0,102 mm 58 W/m 14,2 C 18,1 C 12,0 km/h (2 Bft)
29/09/2008 19:00 17,0 C 81 % 1015,0 hPa 0,0 l/m 0,8 km/h (0 Bft) S 0,05 h 0,076 mm 10 W/m 13,6 C 17,0 C 1,6 km/h (1 Bft)
29/09/2008 20:00 15,9 C 84 % 1014,7 hPa 0,0 l/m 3,5 km/h (1 Bft) N-NO 0,00 h 0,000 mm 0 W/m 13,2 C 15,9 C 5,4 km/h (1 Bft)
29/09/2008 21:00 15,1 C 87 % 1014,7 hPa 0,0 l/m 3,4 km/h (1 Bft) O-NO 0,00 h 0,025 mm 0 W/m 12,9 C 15,1 C 5,4 km/h (1 Bft)
29/09/2008 22:00 14,5 C 88 % 1014,6 hPa 0,0 l/m 3,1 km/h (1 Bft) O-NO 0,00 h 0,025 mm 0 W/m 12,6 C 14,5 C 4,9 km/h (1 Bft)
29/09/2008 23:00 14,1 C 89 % 1014,6 hPa 0,0 l/m 2,4 km/h (1 Bft) NO 0,00 h 0,025 mm 0 W/m 12,3 C 14,1 C 4,1 km/h (1 Bft)
30/09/2008 00:00 13,8 C 89 % 1014,3 hPa 0,0 l/m 4,9 km/h (1 Bft) NO 0,00 h 0,025 mm 0 W/m 12,0 C 13,8 C 7,0 km/h (2 Bft)
30/09/2008 01:00 13,4 C 88 % 1014,1 hPa 0,0 l/m 3,1 km/h (1 Bft) NO 0,00 h 0,025 mm 0 W/m 11,5 C 13,4 C 4,5 km/h (1 Bft)
30/09/2008 02:00 13,1 C 86 % 1014,0 hPa 0,0 l/m 5,1 km/h (1 Bft) O 0,00 h 0,025 mm 0 W/m 10,9 C 13,1 C 6,5 km/h (2 Bft)
30/09/2008 03:00 12,7 C 81 % 1013,5 hPa 0,0 l/m 5,2 km/h (1 Bft) O-NO 0,00 h 0,025 mm 0 W/m 9,5 C 12,7 C 7,1 km/h (2 Bft)
30/09/2008 04:00 12,7 C 80 % 1013,1 hPa 0,0 l/m 4,3 km/h (1 Bft) N-NO 0,00 h 0,025 mm 0 W/m 9,5 C 12,7 C 6,1 km/h (2 Bft)
30/09/2008 05:00 12,6 C 81 % 1013,0 hPa 0,0 l/m 3,7 km/h (1 Bft) NO 0,00 h 0,025 mm 0 W/m 9,3 C 12,6 C 5,3 km/h (1 Bft)
30/09/2008 06:00 12,1 C 79 % 1012,7 hPa 0,0 l/m 2,7 km/h (1 Bft) NO 0,00 h 0,025 mm 0 W/m 8,7 C 12,1 C 4,2 km/h (1 Bft)
30/09/2008 07:00 11,6 C 81 % 1013,1 hPa 0,0 l/m 2,4 km/h (1 Bft) N 0,03 h 0,025 mm 14 W/m 8,5 C 11,6 C 4,2 km/h (1 Bft)
30/09/2008 08:00 12,8 C 82 % 1013,4 hPa 0,0 l/m 3,5 km/h (1 Bft) N 0,32 h 0,025 mm 80 W/m 9,7 C 12,8 C 6,3 km/h (2 Bft)
30/09/2008 09:00 16,4 C 71 % 1013,6 hPa 0,0 l/m 3,6 km/h (1 Bft) N 1,00 h 0,051 mm 278 W/m 11,0 C 16,4 C 6,8 km/h (2 Bft)
30/09/2008 10:00 18,8 C 67 % 1013,6 hPa 0,0 l/m 10,3 km/h (2 Bft) NE 1,00 h 0,178 mm 437 W/m 12,5 C 18,8 C 15,6 km/h (3 Bft)
30/09/2008 11:00 20,3 C 65 % 1013,8 hPa 0,0 l/m 11,1 km/h (2 Bft) E 0,97 h 0,305 mm 580 W/m 13,4 C 20,3 C 16,6 km/h (3 Bft)
30/09/2008 12:00 20,7 C 63 % 1013,7 hPa 0,0 l/m 8,1 km/h (2 Bft) E 1,00 h 0,381 mm 650 W/m 13,4 C 20,7 C 13,0 km/h (3 Bft)
30/09/2008 13:00 21,2 C 59 % 1013,7 hPa 0,0 l/m 8,4 km/h (2 Bft) E 1,00 h 0,432 mm 662 W/m 12,8 C 21,2 C 13,4 km/h (3 Bft)
30/09/2008 14:00 21,1 C 63 % 1013,1 hPa 0,0 l/m 7,6 km/h (2 Bft) E 1,00 h 0,432 mm 621 W/m 13,7 C 21,1 C 12,0 km/h (2 Bft)
30/09/2008 15:00 20,8 C 62 % 1012,8 hPa 0,0 l/m 6,7 km/h (2 Bft) E 0,87 h 0,406 mm 483 W/m 13,3 C 20,8 C 10,6 km/h (2 Bft)
30/09/2008 16:00 20,4 C 67 % 1012,5 hPa 0,0 l/m 6,3 km/h (2 Bft) E 0,63 h 0,330 mm 310 W/m 14,0 C 20,4 C 10,1 km/h (2 Bft)
30/09/2008 17:00 19,2 C 74 % 1012,2 hPa 0,0 l/m 3,1 km/h (1 Bft) E 0,62 h 0,203 mm 162 W/m 14,5 C 19,2 C 5,3 km/h (1 Bft)
30/09/2008 18:00 18,6 C 74 % 1012,0 hPa 0,0 l/m 0,7 km/h (0 Bft) E 0,07 h 0,102 mm 53 W/m 13,9 C 18,6 C 2,1 km/h (1 Bft)
30/09/2008 19:00 17,0 C 78 % 1012,1 hPa 0,0 l/m 0,4 km/h (0 Bft) E 0,02 h 0,051 mm 8 W/m 13,2 C 17,0 C 0,9 km/h (0 Bft)
30/09/2008 20:00 16,4 C 81 % 1012,1 hPa 0,0 l/m 1,6 km/h (1 Bft) E 0,00 h 0,000 mm 0 W/m 13,1 C 16,4 C 2,8 km/h (1 Bft)
30/09/2008 21:00 15,5 C 84 % 1012,1 hPa 0,0 l/m 2,6 km/h (1 Bft) NO 0,00 h 0,025 mm 0 W/m 12,8 C 15,5 C 4,7 km/h (1 Bft)
30/09/2008 22:00 15,1 C 87 % 1012,2 hPa 0,0 l/m 3,6 km/h (1 Bft) NO 0,00 h 0,025 mm 0 W/m 13,0 C 15,1 C 5,8 km/h (2 Bft)
30/09/2008 23:00 14,8 C 88 % 1012,0 hPa 0,0 l/m 4,1 km/h (1 Bft) O-NO 0,00 h 0,050 mm 0 W/m 12,8 C 14,8 C 6,7 km/h (2 Bft)
01/10/2008 00:00 14,4 C 89 % 1011,9 hPa 0,0 l/m 4,4 km/h (1 Bft) NO 0,00 h 0,000 mm 0 W/m 12,6 C 14,4 C 6,6 km/h (2 Bft)
01/10/2008 01:00 14,1 C 89 % 1011,5 hPa 0,0 l/m 3,5 km/h (1 Bft) O-NO 0,00 h 0,025 mm 0 W/m 12,3 C 14,1 C 5,8 km/h (2 Bft)
01/10/2008 02:00 13,8 C 89 % 1011,3 hPa 0,0 l/m 5,2 km/h (1 Bft) O-NO 0,00 h 0,025 mm 0 W/m 12,0 C 13,8 C 7,3 km/h (2 Bft)
01/10/2008 03:00 13,5 C 89 % 1010,7 hPa 0,0 l/m 4,2 km/h (1 Bft) O-NO 0,00 h 0,025 mm 0 W/m 11,8 C 13,5 C 6,3 km/h (2 Bft)
01/10/2008 04:00 13,3 C 88 % 1010,2 hPa 0,0 l/m 3,8 km/h (1 Bft) N-NO 0,00 h 0,025 mm 0 W/m 11,4 C 13,3 C 5,3 km/h (1 Bft)
01/10/2008 05:00 13,4 C 88 % 1009,8 hPa 0,0 l/m 4,2 km/h (1 Bft) N-NO 0,00 h 0,025 mm 0 W/m 11,4 C 13,4 C 5,8 km/h (2 Bft)
01/10/2008 06:00 13,0 C 87 % 1009,7 hPa 0,0 l/m 3,6 km/h (1 Bft) NO 0,00 h 0,025 mm 0 W/m 10,9 C 13,0 C 5,4 km/h (1 Bft)
01/10/2008 07:00 12,8 C 88 % 1009,4 hPa 0,0 l/m 4,3 km/h (1 Bft) NO 0,15 h 0,025 mm 20 W/m 10,8 C 12,8 C 6,4 km/h (2 Bft)
01/10/2008 08:00 13,5 C 88 % 1009,5 hPa 0,0 l/m 2,1 km/h (1 Bft) N-NO 0,00 h 0,025 mm 67 W/m 11,5 C 13,5 C 3,5 km/h (1 Bft)
01/10/2008 09:00 16,1 C 76 % 1009,7 hPa 0,0 l/m 0,6 km/h (0 Bft) N-NE 0,80 h 0,051 mm 239 W/m 11,7 C 16,1 C 1,4 km/h (1 Bft)
01/10/2008 10:00 18,3 C 67 % 1009,9 hPa 0,0 l/m 3,0 km/h (1 Bft) N 1,00 h 0,127 mm 445 W/m 12,1 C 18,3 C 5,3 km/h (1 Bft)
01/10/2008 11:00 19,9 C 67 % 1010,1 hPa 0,0 l/m 5,6 km/h (1 Bft) E 1,00 h 0,279 mm 552 W/m 13,7 C 19,9 C 9,2 km/h (2 Bft)
01/10/2008 12:00 20,6 C 65 % 1010,2 hPa 0,0 l/m 7,5 km/h (2 Bft) E 1,00 h 0,356 mm 628 W/m 13,7 C 20,6 C 12,9 km/h (3 Bft)
01/10/2008 13:00 21,2 C 60 % 1010,0 hPa 0,0 l/m 7,2 km/h (2 Bft) E 1,00 h 0,406 mm 676 W/m 13,1 C 21,2 C 11,6 km/h (2 Bft)
01/10/2008 14:00 20,5 C 66 % 1009,5 hPa 0,0 l/m 7,5 km/h (2 Bft) E 0,77 h 0,432 mm 517 W/m 14,0 C 20,5 C 13,0 km/h (3 Bft)
01/10/2008 15:00 20,9 C 67 % 1009,2 hPa 0,0 l/m 6,6 km/h (2 Bft) E 1,00 h 0,330 mm 513 W/m 14,5 C 20,9 C 11,0 km/h (2 Bft)
01/10/2008 16:00 20,3 C 65 % 1009,0 hPa 0,0 l/m 5,5 km/h (1 Bft) E 0,77 h 0,330 mm 320 W/m 13,5 C 20,3 C 9,8 km/h (2 Bft)
01/10/2008 17:00 19,9 C 66 % 1008,8 hPa 0,0 l/m 8,1 km/h (2 Bft) E-NE 1,00 h 0,229 mm 227 W/m 13,2 C 19,9 C 11,2 km/h (2 Bft)
01/10/2008 18:00 18,8 C 70 % 1008,8 hPa 0,0 l/m 3,2 km/h (1 Bft) E-NE 0,70 h 0,178 mm 72 W/m 13,3 C 18,8 C 5,0 km/h (1 Bft)
01/10/2008 19:00 16,2 C 75 % 1009,3 hPa 0,0 l/m 1,3 km/h (1 Bft) N 0,02 h 0,051 mm 7 W/m 11,9 C 16,2 C 3,2 km/h (1 Bft)
01/10/2008 20:00 15,1 C 80 % 1009,3 hPa 0,0 l/m 0,8 km/h (0 Bft) N 0,00 h 0,000 mm 0 W/m 11,6 C 15,1 C 2,2 km/h (1 Bft)
01/10/2008 21:00 15,0 C 82 % 1009,3 hPa 0,0 l/m 0,9 km/h (0 Bft) N 0,00 h 0,025 mm 0 W/m 11,9 C 15,0 C 1,5 km/h (1 Bft)
01/10/2008 22:00 15,1 C 81 % 1009,6 hPa 0,0 l/m 4,1 km/h (1 Bft) O-NO 0,00 h 0,025 mm 0 W/m 11,8 C 15,1 C 5,4 km/h (1 Bft)
01/10/2008 23:00 14,7 C 80 % 1009,7 hPa 0,0 l/m 4,9 km/h (1 Bft) O-NO 0,00 h 0,025 mm 0 W/m 11,3 C 14,7 C 6,4 km/h (2 Bft)
02/10/2008 00:00 14,8 C 79 % 1009,6 hPa 0,0 l/m 6,4 km/h (2 Bft) O 0,00 h 0,025 mm 0 W/m 11,1 C 14,8 C 8,0 km/h (2 Bft)
02/10/2008 01:00 14,3 C 80 % 1009,2 hPa 0,0 l/m 4,5 km/h (1 Bft) O-NO 0,00 h 0,025 mm 0 W/m 10,9 C 14,3 C 6,6 km/h (2 Bft)
02/10/2008 02:00 14,3 C 81 % 1008,9 hPa 0,0 l/m 3,5 km/h (1 Bft) O-NO 0,00 h 0,025 mm 0 W/m 11,1 C 14,3 C 5,7 km/h (1 Bft)
02/10/2008 03:00 14,5 C 80 % 1008,3 hPa 0,0 l/m 4,2 km/h (1 Bft) O-NO 0,00 h 0,025 mm 0 W/m 11,1 C 14,5 C 6,7 km/h (2 Bft)
02/10/2008 04:00 14,1 C 80 % 1007,5 hPa 0,0 l/m 5,5 km/h (1 Bft) O-NO 0,00 h 0,025 mm 0 W/m 10,8 C 14,1 C 8,1 km/h (2 Bft)
02/10/2008 05:00 14,0 C 81 % 1007,1 hPa 0,0 l/m 4,7 km/h (1 Bft) O-NO 0,00 h 0,025 mm 0 W/m 10,8 C 14,0 C 7,0 km/h (2 Bft)
02/10/2008 06:00 13,6 C 82 % 1006,9 hPa 0,0 l/m 4,3 km/h (1 Bft) NO 0,00 h 0,025 mm 0 W/m 10,6 C 13,6 C 6,1 km/h (2 Bft)
02/10/2008 07:00 13,4 C 84 % 1006,8 hPa 0,0 l/m 4,3 km/h (1 Bft) NO 0,00 h 0,025 mm 9 W/m 10,7 C 13,4 C 6,1 km/h (2 Bft)
02/10/2008 08:00 13,3 C 85 % 1007,1 hPa 0,0 l/m 3,1 km/h (1 Bft) O-NO 0,07 h 0,025 mm 52 W/m 10,9 C 13,3 C 5,4 km/h (1 Bft)
02/10/2008 09:00 16,1 C 78 % 1007,3 hPa 0,0 l/m 1,5 km/h (1 Bft) NO 0,82 h 0,025 mm 255 W/m 12,1 C 16,1 C 2,9 km/h (1 Bft)
02/10/2008 10:00 19,0 C 69 % 1007,1 hPa 0,0 l/m 2,8 km/h (1 Bft) SE 1,00 h 0,152 mm 447 W/m 13,3 C 19,0 C 5,1 km/h (1 Bft)
02/10/2008 11:00 19,8 C 66 % 1007,0 hPa 0,0 l/m 8,2 km/h (2 Bft) SO 0,90 h 0,279 mm 559 W/m 13,3 C 19,8 C 11,8 km/h (2 Bft)
02/10/2008 12:00 20,4 C 63 % 1006,6 hPa 0,0 l/m 8,7 km/h (2 Bft) SO 1,00 h 0,356 mm 636 W/m 13,0 C 20,4 C 12,4 km/h (3 Bft)
02/10/2008 13:00 21,4 C 57 % 1006,1 hPa 0,0 l/m 5,4 km/h (1 Bft) E 1,00 h 0,406 mm 645 W/m 12,6 C 21,4 C 8,9 km/h (2 Bft)
02/10/2008 14:00 22,3 C 54 % 1005,2 hPa 0,0 l/m 10,0 km/h (2 Bft) E-NE 1,00 h 0,432 mm 613 W/m 12,5 C 22,3 C 14,4 km/h (3 Bft)
02/10/2008 15:00 22,4 C 54 % 1004,7 hPa 0,0 l/m 8,7 km/h (2 Bft) E-NE 1,00 h 0,432 mm 529 W/m 12,6 C 22,4 C 12,8 km/h (3 Bft)
02/10/2008 16:00 22,3 C 54 % 1004,2 hPa 0,0 l/m 4,3 km/h (1 Bft) E 1,00 h 0,381 mm 395 W/m 12,6 C 22,3 C 8,1 km/h (2 Bft)
02/10/2008 17:00 21,4 C 56 % 1004,0 hPa 0,0 l/m 2,6 km/h (1 Bft) E 0,93 h 0,279 mm 235 W/m 12,1 C 21,4 C 5,8 km/h (2 Bft)
02/10/2008 18:00 20,1 C 60 % 1003,9 hPa 0,0 l/m 2,2 km/h (1 Bft) E-SE 0,57 h 0,152 mm 73 W/m 12,1 C 20,1 C 4,0 km/h (1 Bft)
02/10/2008 19:00 18,8 C 55 % 1004,1 hPa 0,0 l/m 8,3 km/h (2 Bft) O 0,02 h 0,076 mm 6 W/m 9,6 C 18,8 C 12,8 km/h (3 Bft)
02/10/2008 20:00 18,8 C 53 % 1004,4 hPa 0,0 l/m 5,8 km/h (2 Bft) O 0,00 h 0,051 mm 0 W/m 8,9 C 18,8 C 9,1 km/h (2 Bft)
02/10/2008 21:00 19,0 C 49 % 1004,5 hPa 0,0 l/m 13,3 km/h (3 Bft) O-SO 0,00 h 0,076 mm 0 W/m 8,2 C 19,0 C 20,0 km/h (4 Bft)
02/10/2008 22:00 18,6 C 50 % 1004,7 hPa 0,0 l/m 25,7 km/h (4 Bft) O-SO 0,00 h 0,127 mm 0 W/m 8,1 C 18,6 C 33,3 km/h (5 Bft)
02/10/2008 23:00 17,7 C 55 % 1004,9 hPa 0,0 l/m 24,7 km/h (4 Bft) SO 0,00 h 0,178 mm 0 W/m 8,6 C 17,7 C 31,9 km/h (5 Bft)
03/10/2008 00:00 16,8 C 58 % 1004,8 hPa 0,0 l/m 26,2 km/h (4 Bft) O-SO 0,00 h 0,152 mm 0 W/m 8,4 C 16,8 C 34,6 km/h (5 Bft)
03/10/2008 01:00 16,2 C 59 % 1004,8 hPa 0,0 l/m 25,0 km/h (4 Bft) O-SO 0,00 h 0,152 mm 0 W/m 8,1 C 16,2 C 31,8 km/h (5 Bft)
03/10/2008 02:00 15,5 C 62 % 1004,6 hPa 0,0 l/m 24,4 km/h (4 Bft) O-SO 0,00 h 0,152 mm 0 W/m 8,3 C 15,5 C 32,4 km/h (5 Bft)
03/10/2008 03:00 15,6 C 62 % 1004,2 hPa 0,0 l/m 24,2 km/h (4 Bft) O-SO 0,00 h 0,127 mm 0 W/m 8,2 C 15,6 C 32,0 km/h (5 Bft)
03/10/2008 04:00 15,9 C 58 % 1003,7 hPa 0,0 l/m 26,7 km/h (4 Bft) SO 0,00 h 0,127 mm 0 W/m 7,7 C 15,9 C 35,2 km/h (5 Bft)
03/10/2008 05:00 15,4 C 58 % 1003,2 hPa 0,0 l/m 26,8 km/h (4 Bft) SO 0,00 h 0,152 mm 0 W/m 7,2 C 15,4 C 35,0 km/h (5 Bft)
03/10/2008 06:00 14,3 C 62 % 1003,1 hPa 0,0 l/m 28,9 km/h (5 Bft) SO 0,00 h 0,152 mm 0 W/m 7,2 C 14,3 C 37,4 km/h (5 Bft)
03/10/2008 07:00 13,7 C 65 % 1003,2 hPa 0,0 l/m 29,8 km/h (5 Bft) O-SO 0,00 h 0,127 mm 12 W/m 7,2 C 13,7 C 38,3 km/h (5 Bft)
03/10/2008 08:00 13,8 C 63 % 1003,5 hPa 0,0 l/m 30,6 km/h (5 Bft) SO 0,20 h 0,152 mm 79 W/m 6,8 C 13,8 C 39,9 km/h (6 Bft)
03/10/2008 09:00 15,0 C 56 % 1004,0 hPa 0,0 l/m 31,6 km/h (5 Bft) SO 0,70 h 0,178 mm 253 W/m 6,3 C 15,0 C 41,4 km/h (6 Bft)
03/10/2008 10:00 16,4 C 50 % 1004,3 hPa 0,0 l/m 31,2 km/h (5 Bft) SO 0,80 h 0,305 mm 399 W/m 5,9 C 16,4 C 40,6 km/h (6 Bft)
03/10/2008 11:00 17,7 C 46 % 1003,9 hPa 0,0 l/m 31,4 km/h (5 Bft) SO 1,00 h 0,432 mm 574 W/m 5,9 C 17,7 C 41,4 km/h (6 Bft)
03/10/2008 12:00 19,6 C 37 % 1003,8 hPa 0,0 l/m 26,2 km/h (4 Bft) SO 1,00 h 0,559 mm 656 W/m 4,2 C 19,6 C 34,7 km/h (5 Bft)
03/10/2008 13:00 20,8 C 22 % 1003,7 hPa 0,0 l/m 23,5 km/h (4 Bft) O 1,00 h 0,610 mm 681 W/m -1,8 C 20,8 C 33,7 km/h (5 Bft)
03/10/2008 14:00 20,9 C 24 % 1003,0 hPa 0,0 l/m 22,3 km/h (4 Bft) O-SO 1,00 h 0,660 mm 644 W/m -0,4 C 20,9 C 32,0 km/h (5 Bft)
03/10/2008 15:00 21,0 C 23 % 1002,1 hPa 0,0 l/m 26,5 km/h (4 Bft) O-SO 1,00 h 0,635 mm 554 W/m -1,2 C 21,0 C 36,5 km/h (5 Bft)
03/10/2008 16:00 20,6 C 24 % 1001,7 hPa 0,0 l/m 27,0 km/h (4 Bft) O-SO 1,00 h 0,610 mm 419 W/m -0,4 C 20,6 C 38,6 km/h (5 Bft)
03/10/2008 17:00 19,5 C 25 % 1001,3 hPa 0,0 l/m 26,4 km/h (4 Bft) O 1,00 h 0,533 mm 253 W/m -0,8 C 19,5 C 38,4 km/h (5 Bft)
03/10/2008 18:00 18,1 C 25 % 1001,5 hPa 0,0 l/m 24,7 km/h (4 Bft) O 0,72 h 0,432 mm 75 W/m -2,0 C 18,1 C 35,8 km/h (5 Bft)
03/10/2008 19:00 16,2 C 27 % 1002,5 hPa 0,0 l/m 11,7 km/h (2 Bft) O 0,00 h 0,279 mm 7 W/m -3,0 C 16,2 C 18,2 km/h (3 Bft)
03/10/2008 20:00 15,3 C 27 % 1003,7 hPa 0,0 l/m 6,5 km/h (2 Bft) O-NO 0,00 h 0,127 mm 0 W/m -3,5 C 15,3 C 10,2 km/h (2 Bft)
03/10/2008 21:00 14,8 C 27 % 1004,6 hPa 0,0 l/m 7,8 km/h (2 Bft) O-SO 0,00 h 0,102 mm 0 W/m -3,9 C 14,8 C 11,2 km/h (2 Bft)
03/10/2008 22:00 13,9 C 28 % 1005,4 hPa 0,0 l/m 4,8 km/h (1 Bft) O-SO 0,00 h 0,102 mm 0 W/m -4,2 C 13,9 C 6,7 km/h (2 Bft)
03/10/2008 23:00 13,5 C 29 % 1006,0 hPa 0,0 l/m 4,6 km/h (1 Bft) SO 0,00 h 0,076 mm 0 W/m -4,1 C 13,5 C 6,3 km/h (2 Bft)
04/10/2008 00:00 12,3 C 32 % 1006,0 hPa 0,0 l/m 4,9 km/h (1 Bft) E-NE 0,00 h 0,076 mm 0 W/m -3,9 C 12,3 C 6,7 km/h (2 Bft)
04/10/2008 01:00 12,1 C 33 % 1006,0 hPa 0,0 l/m 6,8 km/h (2 Bft) S-SE 0,00 h 0,076 mm 0 W/m -3,9 C 12,1 C 8,7 km/h (2 Bft)
04/10/2008 02:00 11,1 C 35 % 1006,2 hPa 0,0 l/m 2,5 km/h (1 Bft) N 0,00 h 0,076 mm 0 W/m -3,7 C 11,1 C 4,4 km/h (1 Bft)
04/10/2008 03:00 10,5 C 38 % 1006,1 hPa 0,0 l/m 2,1 km/h (1 Bft) N-NE 0,00 h 0,051 mm 0 W/m -3,2 C 10,5 C 3,9 km/h (1 Bft)
04/10/2008 04:00 10,1 C 39 % 1006,2 hPa 0,0 l/m 4,3 km/h (1 Bft) NO 0,00 h 0,051 mm 0 W/m -3,0 C 10,0 C 6,4 km/h (2 Bft)
04/10/2008 05:00 10,6 C 35 % 1006,9 hPa 0,0 l/m 3,3 km/h (1 Bft) O-NO 0,00 h 0,076 mm 0 W/m -4,2 C 10,6 C 5,8 km/h (2 Bft)
04/10/2008 06:00 10,9 C 34 % 1007,4 hPa 0,0 l/m 0,9 km/h (0 Bft) N-NO 0,00 h 0,076 mm 0 W/m -4,4 C 10,9 C 1,9 km/h (1 Bft)
04/10/2008 07:00 11,0 C 33 % 1007,9 hPa 0,0 l/m 1,4 km/h (1 Bft) N-NO 0,02 h 0,051 mm 13 W/m -4,8 C 11,0 C 2,7 km/h (1 Bft)
04/10/2008 08:00 11,5 C 36 % 1008,8 hPa 0,0 l/m 2,2 km/h (1 Bft) O-SO 0,58 h 0,025 mm 102 W/m -3,2 C 11,5 C 3,3 km/h (1 Bft)
04/10/2008 09:00 14,6 C 31 % 1010,1 hPa 0,0 l/m 3,8 km/h (1 Bft) SO 1,00 h 0,076 mm 278 W/m -2,4 C 14,6 C 5,9 km/h (2 Bft)
04/10/2008 10:00 16,9 C 31 % 1011,1 hPa 0,0 l/m 2,4 km/h (1 Bft) E-NE 1,00 h 0,178 mm 449 W/m -0,2 C 16,9 C 4,2 km/h (1 Bft)
04/10/2008 11:00 18,7 C 29 % 1011,5 hPa 0,0 l/m 7,4 km/h (2 Bft) SO 1,00 h 0,279 mm 568 W/m 0,4 C 18,7 C 11,6 km/h (2 Bft)
04/10/2008 12:00 19,4 C 25 % 1012,1 hPa 0,0 l/m 9,7 km/h (2 Bft) O-SO 1,00 h 0,406 mm 653 W/m -1,4 C 19,4 C 13,8 km/h (3 Bft)
04/10/2008 13:00 20,4 C 23 % 1012,2 hPa 0,0 l/m 13,0 km/h (3 Bft) O-SO 1,00 h 0,483 mm 670 W/m -1,7 C 20,4 C 18,3 km/h (3 Bft)
04/10/2008 14:00 20,6 C 25 % 1012,1 hPa 0,0 l/m 21,9 km/h (4 Bft) S 1,00 h 0,533 mm 632 W/m -0,3 C 20,6 C 29,6 km/h (5 Bft)
04/10/2008 15:00 20,2 C 27 % 1012,1 hPa 0,0 l/m 22,5 km/h (4 Bft) S 1,00 h 0,610 mm 524 W/m 0,5 C 20,2 C 30,2 km/h (5 Bft)
04/10/2008 16:00 19,2 C 31 % 1012,3 hPa 0,0 l/m 22,1 km/h (4 Bft) S 1,00 h 0,533 mm 373 W/m 1,5 C 19,2 C 29,9 km/h (5 Bft)
04/10/2008 17:00 18,5 C 38 % 1012,3 hPa 0,0 l/m 9,9 km/h (2 Bft) S 0,87 h 0,432 mm 206 W/m 4,0 C 18,5 C 14,2 km/h (3 Bft)
04/10/2008 18:00 18,0 C 43 % 1012,5 hPa 0,0 l/m 1,6 km/h (1 Bft) N 0,88 h 0,203 mm 81 W/m 5,2 C 18,0 C 3,6 km/h (1 Bft)
04/10/2008 19:00 15,4 C 47 % 1013,1 hPa 0,0 l/m 2,7 km/h (1 Bft) SO 0,00 h 0,076 mm 8 W/m 4,3 C 15,4 C 4,5 km/h (1 Bft)
04/10/2008 20:00 14,2 C 51 % 1013,7 hPa 0,0 l/m 5,2 km/h (1 Bft) N-NO 0,00 h 0,025 mm 0 W/m 4,3 C 14,2 C 8,5 km/h (2 Bft)
04/10/2008 21:00 12,7 C 56 % 1014,3 hPa 0,0 l/m 2,1 km/h (1 Bft) N 0,00 h 0,076 mm 0 W/m 4,1 C 12,7 C 4,3 km/h (1 Bft)
04/10/2008 22:00 11,9 C 57 % 1014,5 hPa 0,0 l/m 1,1 km/h (0 Bft) N 0,00 h 0,051 mm 0 W/m 3,7 C 11,9 C 2,7 km/h (1 Bft)
04/10/2008 23:00 12,3 C 51 % 1014,7 hPa 0,0 l/m 1,5 km/h (1 Bft) N 0,00 h 0,051 mm 0 W/m 2,4 C 12,3 C 2,7 km/h (1 Bft)
05/10/2008 00:00 11,5 C 51 % 1014,7 hPa 0,0 l/m 4,1 km/h (1 Bft) N-NE 0,00 h 0,051 mm 0 W/m 1,8 C 11,5 C 6,6 km/h (2 Bft)
05/10/2008 01:00 10,8 C 58 % 1014,9 hPa 0,0 l/m 5,4 km/h (1 Bft) N 0,00 h 0,051 mm 0 W/m 3,0 C 10,8 C 8,4 km/h (2 Bft)
05/10/2008 02:00 11,1 C 63 % 1015,1 hPa 0,0 l/m 7,0 km/h (2 Bft) N-NE 0,00 h 0,051 mm 0 W/m 4,3 C 11,1 C 10,4 km/h (2 Bft)
05/10/2008 03:00 10,4 C 64 % 1015,1 hPa 0,0 l/m 4,7 km/h (1 Bft) N 0,00 h 0,051 mm 0 W/m 3,9 C 10,4 C 7,2 km/h (2 Bft)
05/10/2008 04:00 10,3 C 64 % 1014,8 hPa 0,0 l/m 4,1 km/h (1 Bft) N-NE 0,00 h 0,051 mm 0 W/m 3,8 C 10,3 C 6,5 km/h (2 Bft)
05/10/2008 05:00 10,2 C 62 % 1014,8 hPa 0,0 l/m 2,0 km/h (1 Bft) N 0,00 h 0,051 mm 0 W/m 3,2 C 10,2 C 4,3 km/h (1 Bft)
05/10/2008 06:00 10,7 C 59 % 1014,9 hPa 0,0 l/m 4,0 km/h (1 Bft) N-NO 0,00 h 0,025 mm 0 W/m 3,0 C 10,7 C 6,4 km/h (2 Bft)
05/10/2008 07:00 11,1 C 60 % 1015,3 hPa 0,0 l/m 5,2 km/h (1 Bft) N-NO 0,03 h 0,051 mm 10 W/m 3,6 C 11,1 C 8,1 km/h (2 Bft)
05/10/2008 08:00 12,1 C 60 % 1015,7 hPa 0,0 l/m 4,7 km/h (1 Bft) N-NO 0,57 h 0,025 mm 98 W/m 4,6 C 12,1 C 7,2 km/h (2 Bft)
05/10/2008 09:00 15,1 C 51 % 1016,3 hPa 0,0 l/m 1,1 km/h (1 Bft) N 1,00 h 0,076 mm 283 W/m 5,0 C 15,1 C 3,4 km/h (1 Bft)
05/10/2008 10:00 17,2 C 50 % 1016,7 hPa 0,0 l/m 2,9 km/h (1 Bft) E-NE 1,00 h 0,152 mm 439 W/m 6,6 C 17,2 C 5,3 km/h (1 Bft)
05/10/2008 11:00 17,9 C 51 % 1016,9 hPa 0,0 l/m 4,5 km/h (1 Bft) S-SE 1,00 h 0,254 mm 559 W/m 7,6 C 17,9 C 8,0 km/h (2 Bft)
05/10/2008 12:00 18,8 C 50 % 1016,8 hPa 0,0 l/m 7,0 km/h (2 Bft) S 0,95 h 0,356 mm 627 W/m 8,1 C 18,8 C 11,1 km/h (2 Bft)
05/10/2008 13:00 19,3 C 47 % 1016,5 hPa 0,0 l/m 9,9 km/h (2 Bft) S-SE 1,00 h 0,406 mm 647 W/m 7,8 C 19,3 C 15,0 km/h (3 Bft)
05/10/2008 14:00 19,5 C 44 % 1015,9 hPa 0,0 l/m 13,3 km/h (3 Bft) S-SE 1,00 h 0,432 mm 610 W/m 7,0 C 19,5 C 19,3 km/h (3 Bft)
05/10/2008 15:00 19,0 C 46 % 1015,7 hPa 0,0 l/m 10,7 km/h (2 Bft) S-SE 1,00 h 0,457 mm 520 W/m 7,1 C 19,0 C 17,0 km/h (3 Bft)
05/10/2008 16:00 18,5 C 48 % 1015,7 hPa 0,0 l/m 9,2 km/h (2 Bft) S-SE 1,00 h 0,381 mm 384 W/m 7,1 C 18,5 C 14,4 km/h (3 Bft)
05/10/2008 17:00 18,0 C 43 % 1015,7 hPa 0,0 l/m 3,3 km/h (1 Bft) SE 1,00 h 0,279 mm 196 W/m 5,3 C 18,0 C 6,0 km/h (2 Bft)
05/10/2008 18:00 17,2 C 44 % 1015,8 hPa 0,0 l/m 0,5 km/h (0 Bft) SE 0,33 h 0,152 mm 54 W/m 4,7 C 17,2 C 1,8 km/h (1 Bft)
05/10/2008 19:00 13,8 C 54 % 1016,0 hPa 0,0 l/m 2,0 km/h (1 Bft) N 0,00 h 0,051 mm 5 W/m 4,5 C 13,8 C 4,2 km/h (1 Bft)
05/10/2008 20:00 13,1 C 65 % 1016,2 hPa 0,0 l/m 3,9 km/h (1 Bft) N 0,00 h 0,025 mm 0 W/m 6,6 C 13,1 C 6,9 km/h (2 Bft)
05/10/2008 21:00 13,1 C 70 % 1016,4 hPa 0,0 l/m 3,2 km/h (1 Bft) N 0,00 h 0,051 mm 0 W/m 7,7 C 13,1 C 5,8 km/h (2 Bft)
05/10/2008 22:00 12,2 C 67 % 1016,8 hPa 0,0 l/m 2,5 km/h (1 Bft) N-NO 0,00 h 0,025 mm 0 W/m 6,3 C 12,2 C 4,4 km/h (1 Bft)
05/10/2008 23:00 11,8 C 64 % 1016,8 hPa 0,0 l/m 3,1 km/h (1 Bft) NO 0,00 h 0,025 mm 0 W/m 5,3 C 11,8 C 4,8 km/h (1 Bft)
Min-Date _ 04/10/08 03/10/08 03/10/08 - 29/09/08 - - - - 04/10/08 04/10/08 29/09/08
_ Min-Heure 04:11 13:23 17:30 - 03:40 - - - - 05:45 04:37 03:41
Minimum _ 9,8 C 19 % 1001,2 hPa - 0,0 km/h (0 Bft) - - - - -5,5 C 8,7 C 0,0 km/h (0 Bft)
Max-Date _ 02/10/08 29/09/08 29/09/08 29/09/08 03/10/08 - 29/09/08 03/10/08 29/09/08 01/10/08 02/10/08 03/10/08
_ Max-Heure 15:58 22:44 00:00 00:00 11:03 - 07:37 14:00 12:01 15:20 15:58 15:20
Maximum _ 22,9 C 89 % 1020,5 hPa 0,0 l/m 43,5 km/h
SO (6 Bft)
- 0,02 h 0,660 mm 742 W/m 15,2 C 22,9 C 56,3 km/h
O-SO (7 Bft)
Moyenne _ 16,0 C 62 % 1010,9 hPa #0,0 l/m 7,9 km/h (2 Bft) O-NO #60:30 h #27,232 mm 324 W/m 7,8 C 16,0 C 11,5 km/h (2 Bft)
Roquefort les pins